Aviation Digital Data Service (ADDS)

Output produced by METARs form (2025 UTC 18 August 2017)
found at http://aviationweather.gov/adds/metars/
 
KFDY 181726Z 1818/1918 27014G20KT P6SM SCT028 BKN035 
     TEMPO 1818/1822 BKN028 
     FM182200 27012KT P6SM SCT035 BKN090 
     FM190000 27010KT P6SM FEW035 SCT120 
     FM190800 VRB03KT 6SM BR VCSH SCT045 BKN110 
     FM191400 22005KT P6SM BKN030 
     FM191600 26007KT P6SM BKN035